Slotergracht — PDBP — position and weather

sailwx.info

Track history (hours):
 
Tides and Currents Weather Stations Pressure Air Temp Water Temp Dewpoint Dewpoint Depression Visibility Wind Speed Wind Dir Waves Ship Positions

Slotergracht

Last reported at 2016-Jun-29 11:33 UTC. Time now 2016-Jul-01 17:14 UTC.
Position N 59°53' E 019°39'.

Length 168 m; beam 25 m.

Type: Cargo ship. MMSI: 246456000.

Date/timePositionNaut miles runAvg speedWind from/ knotsBaromVisibWave heightAir tempDewpointWater temp
2016-Jun-29 11:33N 59°53' E 019°39'1818.2
2016-Jun-29 10:33N 59°39' E 020°02'28817.5
2016-Jun-28 18:06N 55°35' E 015°16'1119.5
2016-Jun-28 17:33N 55°30' E 014°59'1918.9
2016-Jun-28 16:33N 55°19' E 014°33'1919.0
2016-Jun-28 15:33N 55°04' E 014°12'1918.8
2016-Jun-28 14:33N 54°56' E 013°43'3818.3
2016-Jun-28 12:28N 54°44' E 012°40'1617.8
2016-Jun-28 11:34N 54°34' E 012°18'1515.3
2016-Jun-28 10:33N 54°25' E 011°57'1817.8
2016-Jun-28 09:34N 54°30' E 011°27'1818.2
2016-Jun-28 08:33N 54°39' E 010°60'1616.1
2016-Jun-28 07:33N 54°55' E 010°53'1717.4
2016-Jun-28 06:33N 55°11' E 011°04'4614.8
2016-Jun-28 03:25N 55°57' E 010°60'1818.3
2016-Jun-28 02:25N 56°13' E 011°17'1717.9
2016-Jun-28 01:26N 56°28' E 011°33'1617.8
2016-Jun-28 00:33N 56°41' E 011°48'1817.8
2016-Jun-27 23:33N 56°59' E 011°42'1918.8
2016-Jun-27 22:33N 57°17' E 011°31'1818.3
2016-Jun-27 21:33N 57°33' E 011°15'1918.6
2016-Jun-27 20:34N 57°45' E 010°49'12019.0
2016-Jun-27 14:14N 57°41' E 007°04'1217.8
2016-Jun-27 13:32N 57°42' E 006°41'1818.1
2016-Jun-27 12:33N 57°46' E 006°08'28018.7
2016-Jun-26 21:34N 58°41' W 002°33'1717.4
2016-Jun-26 20:33N 58°43' W 003°06'1616.1
2016-Jun-26 19:33N 58°43' W 003°37'1818.1
2016-Jun-26 18:33N 58°43' W 004°12'  
Track history (hours):
 
Tides and Currents Weather Stations Pressure Air Temp Water Temp Dewpoint Dewpoint Depression Visibility Wind Speed Wind Dir Waves Ship Positions

Slotergracht

Last reported at 2016-Jun-29 11:33 UTC. Time now 2016-Jul-01 17:14 UTC.
Position N 59°53' E 019°39'.

Length 168 m; beam 25 m.

Type: Cargo ship. MMSI: 246456000.

Date/timePositionNaut miles runAvg speedWind from/ knotsBaromVisibWave heightAir tempDewpointWater temp
2016-Jun-29 11:33N 59°53' E 019°39'1818.2
2016-Jun-29 10:33N 59°39' E 020°02'28817.5
2016-Jun-28 18:06N 55°35' E 015°16'1119.5
2016-Jun-28 17:33N 55°30' E 014°59'1918.9
2016-Jun-28 16:33N 55°19' E 014°33'1919.0
2016-Jun-28 15:33N 55°04' E 014°12'1918.8
2016-Jun-28 14:33N 54°56' E 013°43'3818.3
2016-Jun-28 12:28N 54°44' E 012°40'1617.8
2016-Jun-28 11:34N 54°34' E 012°18'1515.3
2016-Jun-28 10:33N 54°25' E 011°57'1817.8
2016-Jun-28 09:34N 54°30' E 011°27'1818.2
2016-Jun-28 08:33N 54°39' E 010°60'1616.1
2016-Jun-28 07:33N 54°55' E 010°53'1717.4
2016-Jun-28 06:33N 55°11' E 011°04'4614.8
2016-Jun-28 03:25N 55°57' E 010°60'1818.3
2016-Jun-28 02:25N 56°13' E 011°17'1717.9
2016-Jun-28 01:26N 56°28' E 011°33'1617.8
2016-Jun-28 00:33N 56°41' E 011°48'1817.8
2016-Jun-27 23:33N 56°59' E 011°42'1918.8
2016-Jun-27 22:33N 57°17' E 011°31'1818.3
2016-Jun-27 21:33N 57°33' E 011°15'1918.6
2016-Jun-27 20:34N 57°45' E 010°49'12019.0
2016-Jun-27 14:14N 57°41' E 007°04'1217.8
2016-Jun-27 13:32N 57°42' E 006°41'1818.1
2016-Jun-27 12:33N 57°46' E 006°08'28018.7
2016-Jun-26 21:34N 58°41' W 002°33'1717.4
2016-Jun-26 20:33N 58°43' W 003°06'1616.1
2016-Jun-26 19:33N 58°43' W 003°37'1818.1
2016-Jun-26 18:33N 58°43' W 004°12'  

Dump ship's entire track history